Indian Creek (Missouri), Lanagan (07188885)

StateMissouriCurrentGood (624 cfs)
RiverIndian CreekFlood - The river is flooding. Obstacles can be treacherous or deadly. The river should be avoided at this stage for casual trips and definitely for the inexperienced. Trips should be attempted only with protective gear and equipment.Flood(none)
Updated2019-10-14 2:15 (40 minutes ago)High - The river is high and potentially dangerous, especially for the young and / or inexperienced. Normal stream obstacles are sometimes difficult to navigate. Extended distances can be attempted, but canoe travel may not be advisable.High(none)
Discharge624 cfs (median: 79 cfs)Good - Conditions are ideal for a canoe or kayak. Boats typically will drag on fewer than one-quarter of riffles, if at all, and portages are unnecessary or rare. Normal float lengths can be attempted without a problem.Good40
Height2.97 feetLow - River is low but can still be floated. Some riffles are okay but most come with significant dragging and might need a portage. Float lengths should be reduced to accommodate low flow, dragging, and portages.Low(none)
TrendSteady (falling over 24 hours)Poor - River is too low to float comfortably. Most or all riffles will drag or must be portaged and some obstacles (such as slick shelf rock) cause undue problems. Avoid the river at this stage for casual paddling trips.Poor(none)
USGSExternal icon USGS Site for Lanagan (07188885)LocationExternal icon Google Maps

Trending Data

Plot Image
ObservationHeightDischargeMaximum
Discharge
Minimum
Discharge
Mean
Discharge
P05P10P20P25P50
(Median)
P75P80P90P95
2019-10-14 02:15 2.97 624 869 (2015) 21 (2007) 173 27 37 38 79 100 194 759
2019-10-14 01:15 2.97 624 869 (2015) 21 (2007) 173 27 37 38 79 100 194 759
2019-10-14 00:15 3.03 652 869 (2015) 21 (2007) 173 27 37 38 79 100 194 759
2019-10-13 23:15 3.00 638 863 (2010) 21 (2007) 148 27 37 39 84 105 133 634
2019-10-13 22:15 2.98 628 863 (2010) 21 (2007) 148 27 37 39 84 105 133 634
2019-10-13 21:15 3.00 638 863 (2010) 21 (2007) 148 27 37 39 84 105 133 634
2019-10-13 20:15 3.05 661 863 (2010) 21 (2007) 148 27 37 39 84 105 133 634
2019-10-13 19:15 3.05 661 863 (2010) 21 (2007) 148 27 37 39 84 105 133 634
2019-10-13 18:15 3.05 661 863 (2010) 21 (2007) 148 27 37 39 84 105 133 634
2019-10-13 17:15 3.10 685 863 (2010) 21 (2007) 148 27 37 39 84 105 133 634
2019-10-13 16:15 3.08 675 863 (2010) 21 (2007) 148 27 37 39 84 105 133 634
2019-10-13 15:15 3.10 685 863 (2010) 21 (2007) 148 27 37 39 84 105 133 634
2019-10-13 14:15 3.08 675 863 (2010) 21 (2007) 148 27 37 39 84 105 133 634
2019-10-13 13:15 3.08 675 863 (2010) 21 (2007) 148 27 37 39 84 105 133 634
2019-10-13 12:15 3.16 715 863 (2010) 21 (2007) 148 27 37 39 84 105 133 634
2019-10-13 11:15 3.18 725 863 (2010) 21 (2007) 148 27 37 39 84 105 133 634
2019-10-13 10:15 3.16 715 863 (2010) 21 (2007) 148 27 37 39 84 105 133 634
2019-10-13 09:15 3.19 730 863 (2010) 21 (2007) 148 27 37 39 84 105 133 634
2019-10-13 08:15 3.18 725 863 (2010) 21 (2007) 148 27 37 39 84 105 133 634
2019-10-13 07:15 3.19 730 863 (2010) 21 (2007) 148 27 37 39 84 105 133 634
2019-10-13 06:15 3.21 740 863 (2010) 21 (2007) 148 27 37 39 84 105 133 634
2019-10-13 05:15 3.23 750 863 (2010) 21 (2007) 148 27 37 39 84 105 133 634
2019-10-13 04:15 3.23 750 863 (2010) 21 (2007) 148 27 37 39 84 105 133 634
2019-10-13 03:15 3.27 770 863 (2010) 21 (2007) 148 27 37 39 84 105 133 634
2019-10-13 02:15 3.28 776 863 (2010) 21 (2007) 148 27 37 39 84 105 133 634
2019-10-13 01:15 3.28 776 863 (2010) 21 (2007) 148 27 37 39 84 105 133 634
2019-10-13 00:15 3.32 797 863 (2010) 21 (2007) 148 27 37 39 84 105 133 634
2019-10-12 23:15 3.32 797 1080 (2010) 21 (2007) 156 28 37 39 79 125 133 616
2019-10-12 22:15 3.30 786 1080 (2010) 21 (2007) 156 28 37 39 79 125 133 616
2019-10-12 21:15 3.38 829 1080 (2010) 21 (2007) 156 28 37 39 79 125 133 616
2019-10-12 20:15 3.39 834 1080 (2010) 21 (2007) 156 28 37 39 79 125 133 616
2019-10-12 19:15 3.42 851 1080 (2010) 21 (2007) 156 28 37 39 79 125 133 616
2019-10-12 18:15 3.45 867 1080 (2010) 21 (2007) 156 28 37 39 79 125 133 616
2019-10-12 17:15 3.43 856 1080 (2010) 21 (2007) 156 28 37 39 79 125 133 616
2019-10-12 16:15 3.45 867 1080 (2010) 21 (2007) 156 28 37 39 79 125 133 616
2019-10-12 15:15 3.51 901 1080 (2010) 21 (2007) 156 28 37 39 79 125 133 616
2019-10-12 14:15 3.51 901 1080 (2010) 21 (2007) 156 28 37 39 79 125 133 616
2019-10-12 13:15 3.57 935 1080 (2010) 21 (2007) 156 28 37 39 79 125 133 616
2019-10-12 12:15 3.59 947 1080 (2010) 21 (2007) 156 28 37 39 79 125 133 616
2019-10-12 11:15 3.56 929 1080 (2010) 21 (2007) 156 28 37 39 79 125 133 616
2019-10-12 10:15 3.69 1010 1080 (2010) 21 (2007) 156 28 37 39 79 125 133 616
2019-10-12 09:15 3.66 988 1080 (2010) 21 (2007) 156 28 37 39 79 125 133 616
2019-10-12 08:15 3.69 1010 1080 (2010) 21 (2007) 156 28 37 39 79 125 133 616
2019-10-12 07:15 3.79 1070 1080 (2010) 21 (2007) 156 28 37 39 79 125 133 616
2019-10-12 06:15 3.79 1070 1080 (2010) 21 (2007) 156 28 37 39 79 125 133 616
2019-10-12 05:15 3.85 1110 1080 (2010) 21 (2007) 156 28 37 39 79 125 133 616
2019-10-12 04:15 3.84 1100 1080 (2010) 21 (2007) 156 28 37 39 79 125 133 616
2019-10-12 03:15 3.99 1200 1080 (2010) 21 (2007) 156 28 37 39 79 125 133 616
2019-10-12 02:15 4.00 1200 1080 (2010) 21 (2007) 156 28 37 39 79 125 133 616
2019-10-12 01:15 4.08 1260 1080 (2010) 21 (2007) 156 28 37 39 79 125 133 616
2019-10-12 00:15 4.18 1330 1080 (2010) 21 (2007) 156 28 37 39 79 125 133 616
2019-10-11 23:15 4.25 1380 1550 (2010) 21 (2007) 200 28 33 37 61 107 120 1080
2019-10-11 22:15 4.35 1450 1550 (2010) 21 (2007) 200 28 33 37 61 107 120 1080
2019-10-11 21:15 4.40 1490 1550 (2010) 21 (2007) 200 28 33 37 61 107 120 1080
2019-10-11 20:15 4.54 1600 1550 (2010) 21 (2007) 200 28 33 37 61 107 120 1080
2019-10-11 19:15 4.64 1690 1550 (2010) 21 (2007) 200 28 33 37 61 107 120 1080
2019-10-11 18:15 4.81 1860 1550 (2010) 21 (2007) 200 28 33 37 61 107 120 1080
2019-10-11 17:15 4.96 2010 1550 (2010) 21 (2007) 200 28 33 37 61 107 120 1080
2019-10-11 16:15 4.93 1980 1550 (2010) 21 (2007) 200 28 33 37 61 107 120 1080
2019-10-11 15:15 4.99 2040 1550 (2010) 21 (2007) 200 28 33 37 61 107 120 1080
2019-10-11 14:15 5.00 2050 1550 (2010) 21 (2007) 200 28 33 37 61 107 120 1080
2019-10-11 13:15 4.73 1780 1550 (2010) 21 (2007) 200 28 33 37 61 107 120 1080
2019-10-11 12:15 4.50 1570 1550 (2010) 21 (2007) 200 28 33 37 61 107 120 1080
2019-10-11 11:15 4.23 1360 1550 (2010) 21 (2007) 200 28 33 37 61 107 120 1080
2019-10-11 10:15 3.94 1160 1550 (2010) 21 (2007) 200 28 33 37 61 107 120 1080
2019-10-11 09:15 3.60 953 1550 (2010) 21 (2007) 200 28 33 37 61 107 120 1080
2019-10-11 08:15 3.61 959 1550 (2010) 21 (2007) 200 28 33 37 61 107 120 1080
2019-10-11 07:15 3.56 929 1550 (2010) 21 (2007) 200 28 33 37 61 107 120 1080
2019-10-11 06:15 3.40 840 1550 (2010) 21 (2007) 200 28 33 37 61 107 120 1080
2019-10-11 05:15 3.26 765 1550 (2010) 21 (2007) 200 28 33 37 61 107 120 1080
2019-10-11 04:15 3.09 680 1550 (2010) 21 (2007) 200 28 33 37 61 107 120 1080
2019-10-11 03:15 3.00 638 1550 (2010) 21 (2007) 200 28 33 37 61 107 120 1080
2019-10-11 02:15 2.88 583 1550 (2010) 21 (2007) 200 28 33 37 61 107 120 1080
2019-10-11 01:15 2.77 536 1550 (2010) 21 (2007) 200 28 33 37 61 107 120 1080
2019-10-11 00:15 2.57 450 1550 (2010) 21 (2007) 200 28 33 37 61 107 120 1080
2019-10-10 23:15 2.41 383 4250 (2010) 22 (2007) 386 28 35 38 57 93 129 1950
2019-10-10 22:15 2.32 348 4250 (2010) 22 (2007) 386 28 35 38 57 93 129 1950
2019-10-10 21:15 2.25 322 4250 (2010) 22 (2007) 386 28 35 38 57 93 129 1950
2019-10-10 20:15 2.23 315 4250 (2010) 22 (2007) 386 28 35 38 57 93 129 1950
2019-10-10 19:15 2.24 318 4250 (2010) 22 (2007) 386 28 35 38 57 93 129 1950
2019-10-10 18:15 2.17 294 4250 (2010) 22 (2007) 386 28 35 38 57 93 129 1950
2019-10-10 17:15 2.12 277 4250 (2010) 22 (2007) 386 28 35 38 57 93 129 1950
2019-10-10 16:15 2.12 277 4250 (2010) 22 (2007) 386 28 35 38 57 93 129 1950
2019-10-10 15:15 2.12 277 4250 (2010) 22 (2007) 386 28 35 38 57 93 129 1950
2019-10-10 14:15 2.13 280 4250 (2010) 22 (2007) 386 28 35 38 57 93 129 1950
2019-10-10 13:15 2.12 277 4250 (2010) 22 (2007) 386 28 35 38 57 93 129 1950
2019-10-10 12:15 2.13 280 4250 (2010) 22 (2007) 386 28 35 38 57 93 129 1950
2019-10-10 11:15 2.11 274 4250 (2010) 22 (2007) 386 28 35 38 57 93 129 1950
2019-10-10 10:15 2.10 270 4250 (2010) 22 (2007) 386 28 35 38 57 93 129 1950
2019-10-10 09:15 2.10 270 4250 (2010) 22 (2007) 386 28 35 38 57 93 129 1950
2019-10-10 08:15 2.11 274 4250 (2010) 22 (2007) 386 28 35 38 57 93 129 1950
2019-10-10 07:15 2.11 274 4250 (2010) 22 (2007) 386 28 35 38 57 93 129 1950
2019-10-10 06:15 2.12 277 4250 (2010) 22 (2007) 386 28 35 38 57 93 129 1950
2019-10-10 05:15 2.12 277 4250 (2010) 22 (2007) 386 28 35 38 57 93 129 1950
2019-10-10 04:15 2.12 277 4250 (2010) 22 (2007) 386 28 35 38 57 93 129 1950
2019-10-10 03:15 2.14 284 4250 (2010) 22 (2007) 386 28 35 38 57 93 129 1950
2019-10-10 02:15 2.14 284 4250 (2010) 22 (2007) 386 28 35 38 57 93 129 1950
2019-10-10 01:15 2.15 287 4250 (2010) 22 (2007) 386 28 35 38 57 93 129 1950
2019-10-10 00:15 2.16 290 4250 (2010) 22 (2007) 386 28 35 38 57 93 129 1950
2019-10-09 23:15 2.16 290 10400 (2010) 21 (2007) 638 28 33 37 47 82 95 1280
2019-10-09 22:15 2.16 290 10400 (2010) 21 (2007) 638 28 33 37 47 82 95 1280
2019-10-09 21:15 2.17 294 10400 (2010) 21 (2007) 638 28 33 37 47 82 95 1280
2019-10-09 20:15 2.17 294 10400 (2010) 21 (2007) 638 28 33 37 47 82 95 1280
2019-10-09 19:15 2.18 297 10400 (2010) 21 (2007) 638 28 33 37 47 82 95 1280
2019-10-09 18:15 2.18 297 10400 (2010) 21 (2007) 638 28 33 37 47 82 95 1280
2019-10-09 17:15 2.19 301 10400 (2010) 21 (2007) 638 28 33 37 47 82 95 1280
2019-10-09 16:15 2.21 308 10400 (2010) 21 (2007) 638 28 33 37 47 82 95 1280
2019-10-09 15:15 2.21 308 10400 (2010) 21 (2007) 638 28 33 37 47 82 95 1280
2019-10-09 14:15 2.20 304 10400 (2010) 21 (2007) 638 28 33 37 47 82 95 1280
2019-10-09 13:15 2.22 311 10400 (2010) 21 (2007) 638 28 33 37 47 82 95 1280
2019-10-09 12:15 2.22 311 10400 (2010) 21 (2007) 638 28 33 37 47 82 95 1280
2019-10-09 11:15 2.19 301 10400 (2010) 21 (2007) 638 28 33 37 47 82 95 1280
2019-10-09 10:15 2.20 304 10400 (2010) 21 (2007) 638 28 33 37 47 82 95 1280
2019-10-09 09:15 2.21 308 10400 (2010) 21 (2007) 638 28 33 37 47 82 95 1280
2019-10-09 08:15 2.21 308 10400 (2010) 21 (2007) 638 28 33 37 47 82 95 1280
2019-10-09 07:15 2.21 308 10400 (2010) 21 (2007) 638 28 33 37 47 82 95 1280
2019-10-09 06:15 2.22 311 10400 (2010) 21 (2007) 638 28 33 37 47 82 95 1280
2019-10-09 05:15 2.23 315 10400 (2010) 21 (2007) 638 28 33 37 47 82 95 1280
2019-10-09 04:15 2.24 318 10400 (2010) 21 (2007) 638 28 33 37 47 82 95 1280
2019-10-09 03:15 2.24 318 10400 (2010) 21 (2007) 638 28 33 37 47 82 95 1280
2019-10-09 02:15 2.25 322 10400 (2010) 21 (2007) 638 28 33 37 47 82 95 1280
2019-10-09 01:15 2.26 326 10400 (2010) 21 (2007) 638 28 33 37 47 82 95 1280
2019-10-09 00:15 2.26 326 10400 (2010) 21 (2007) 638 28 33 37 47 82 95 1280
2019-10-08 23:15 2.29 337 202 (2010) 21 (2007) 65 28 29 35 48 87 98 126
2019-10-08 22:15 2.28 333 202 (2010) 21 (2007) 65 28 29 35 48 87 98 126
2019-10-08 21:15 2.29 337 202 (2010) 21 (2007) 65 28 29 35 48 87 98 126
2019-10-08 20:15 2.30 340 202 (2010) 21 (2007) 65 28 29 35 48 87 98 126
2019-10-08 18:15 2.31 344 202 (2010) 21 (2007) 65 28 29 35 48 87 98 126
2019-10-08 17:15 2.32 348 202 (2010) 21 (2007) 65 28 29 35 48 87 98 126
2019-10-08 16:15 2.34 356 202 (2010) 21 (2007) 65 28 29 35 48 87 98 126
2019-10-08 15:15 2.34 356 202 (2010) 21 (2007) 65 28 29 35 48 87 98 126
2019-10-08 14:15 2.35 359 202 (2010) 21 (2007) 65 28 29 35 48 87 98 126
2019-10-08 13:15 2.36 363 202 (2010) 21 (2007) 65 28 29 35 48 87 98 126
2019-10-08 12:15 2.36 363 202 (2010) 21 (2007) 65 28 29 35 48 87 98 126
2019-10-08 11:15 2.37 367 202 (2010) 21 (2007) 65 28 29 35 48 87 98 126
2019-10-08 09:15 2.39 375 202 (2010) 21 (2007) 65 28 29 35 48 87 98 126
2019-10-08 08:15 2.40 379 202 (2010) 21 (2007) 65 28 29 35 48 87 98 126
2019-10-08 07:15 2.41 383 202 (2010) 21 (2007) 65 28 29 35 48 87 98 126
2019-10-08 06:15 2.40 379 202 (2010) 21 (2007) 65 28 29 35 48 87 98 126
2019-10-08 05:15 2.43 391 202 (2010) 21 (2007) 65 28 29 35 48 87 98 126
2019-10-08 04:15 2.43 391 202 (2010) 21 (2007) 65 28 29 35 48 87 98 126
2019-10-08 03:15 2.44 395 202 (2010) 21 (2007) 65 28 29 35 48 87 98 126
2019-10-08 02:15 2.45 399 202 (2010) 21 (2007) 65 28 29 35 48 87 98 126
2019-10-08 01:15 2.44 395 202 (2010) 21 (2007) 65 28 29 35 48 87 98 126
2019-10-08 00:15 2.48 412 202 (2010) 21 (2007) 65 28 29 35 48 87 98 126
2019-10-07 23:15 2.47 407 121 (2009) 21 (2007) 58 28 30 36 50 76 92 101
2019-10-07 22:15 2.50 420 121 (2009) 21 (2007) 58 28 30 36 50 76 92 101
2019-10-07 21:15 2.52 428 121 (2009) 21 (2007) 58 28 30 36 50 76 92 101
2019-10-07 20:15 2.52 428 121 (2009) 21 (2007) 58 28 30 36 50 76 92 101
2019-10-07 18:15 2.53 433 121 (2009) 21 (2007) 58 28 30 36 50 76 92 101
2019-10-07 17:15 2.54 437 121 (2009) 21 (2007) 58 28 30 36 50 76 92 101
2019-10-07 16:15 2.52 428 121 (2009) 21 (2007) 58 28 30 36 50 76 92 101
2019-10-07 15:15 2.54 437 121 (2009) 21 (2007) 58 28 30 36 50 76 92 101
2019-10-07 14:15 2.52 428 121 (2009) 21 (2007) 58 28 30 36 50 76 92 101
2019-10-07 13:15 2.53 433 121 (2009) 21 (2007) 58 28 30 36 50 76 92 101
2019-10-07 12:15 2.50 420 121 (2009) 21 (2007) 58 28 30 36 50 76 92 101
2019-10-07 11:15 2.48 412 121 (2009) 21 (2007) 58 28 30 36 50 76 92 101
2019-10-07 09:15 2.44 395 121 (2009) 21 (2007) 58 28 30 36 50 76 92 101
2019-10-07 08:15 2.43 391 121 (2009) 21 (2007) 58 28 30 36 50 76 92 101
2019-10-07 07:15 2.42 387 121 (2009) 21 (2007) 58 28 30 36 50 76 92 101
2019-10-07 06:15 2.40 379 121 (2009) 21 (2007) 58 28 30 36 50 76 92 101
2019-10-07 05:15 2.40 379 121 (2009) 21 (2007) 58 28 30 36 50 76 92 101
2019-10-07 04:15 2.39 375 121 (2009) 21 (2007) 58 28 30 36 50 76 92 101
2019-10-07 03:15 2.39 375 121 (2009) 21 (2007) 58 28 30 36 50 76 92 101
2019-10-07 02:15 2.40 379 121 (2009) 21 (2007) 58 28 30 36 50 76 92 101
2019-10-07 01:15 2.40 379 121 (2009) 21 (2007) 58 28 30 36 50 76 92 101
2019-10-07 00:15 2.41 383 121 (2009) 21 (2007) 58 28 30 36 50 76 92 101

A total of 167 rows are displayed for years 2001 through 2018.

Trips for Indian Creek (Missouri), Lanagan (07188885)

DateStartEndDistanceConditionDischargeHeightFishingDetails
Click for details2011-09-05 Anderson Lanagan Total trip distance: 3.8 miles3.8 Good 43 1.22 Fair SMB
RB
LSF
SMB, RB, LSF
East, Mitch
Fillmore, Brian
Leonard, Phil
Ligon, Day
Thompson, Denise
Tucker, Charlie
East, Mitch; Fillmore, Brian; Leonard, Phil; Ligon, Day; Thompson, Denise; Tucker, Charlie
No notes for this trip<i>No notes for this trip</i> USGS Gauge Data:
Lanagan (07188885)
Discharge: 43
Height: 1.22
<b>USGS Gauge Data:</b></br />Lanagan (07188885)<br />Discharge: 43<br />Height: 1.22
Source: FillmoreSource: Fillmore

A total of 1 rows are displayed.

Trip Summary for Indian Creek (Missouri), Lanagan (07188885)

Miles3.8
Trips1
People6
Dates1
Years1
Months1
Rows1
Sources1

Condition Descriptions

Fishing Conditions

Fish Species

Notes

Classic Trip List

The classic River Trips application is still available for use. It is updated with the new system using a data retrofit. It is no longer maintained. The original River Trips application is no longer updated (as of 1 Dec 2016) but can be checked for errors or for the condition of the data before it was converted to the new system.